createdAt,value
2022-10-09T00:01:19.576Z,2.67
2022-10-09T00:03:48.211Z,3.15
2022-10-09T00:06:20.353Z,2.38
2022-10-09T00:08:47.798Z,2.35
2022-10-09T00:11:20.046Z,2.35
2022-10-09T00:13:47.248Z,2.50
2022-10-09T00:16:15.516Z,2.17
2022-10-09T00:18:43.110Z,2.10
2022-10-09T00:21:36.022Z,2.28
2022-10-09T00:24:05.069Z,2.15
2022-10-09T00:26:32.732Z,2.40
2022-10-09T00:28:59.810Z,2.10
2022-10-09T00:31:26.326Z,2.38
2022-10-09T00:33:52.980Z,2.13
2022-10-09T00:36:21.968Z,2.33
2022-10-09T00:38:49.343Z,2.42
2022-10-09T00:41:19.142Z,2.05
2022-10-09T00:43:56.666Z,2.60
2022-10-09T00:46:33.548Z,2.60
2022-10-09T00:49:11.130Z,2.63
2022-10-09T00:51:38.382Z,2.90
2022-10-09T00:54:08.791Z,2.30
2022-10-09T00:56:35.436Z,2.35
2022-10-09T00:59:03.251Z,2.47
2022-10-09T01:01:29.785Z,2.33
2022-10-09T01:03:56.281Z,2.40
2022-10-09T01:06:34.926Z,2.42
2022-10-09T01:09:15.367Z,2.03
2022-10-09T01:11:55.778Z,2.25
2022-10-09T01:14:49.864Z,2.15
2022-10-09T01:17:53.424Z,2.40
2022-10-09T01:20:36.541Z,2.30
2022-10-09T01:23:33.816Z,2.67
2022-10-09T01:26:17.720Z,2.40
2022-10-09T01:28:49.388Z,2.47
2022-10-09T01:31:18.336Z,2.47
2022-10-09T01:33:46.418Z,2.10
2022-10-09T01:36:15.799Z,2.45
2022-10-09T01:38:44.174Z,2.08
2022-10-09T01:41:11.129Z,2.38
2022-10-09T01:43:37.682Z,2.08
2022-10-09T01:46:39.778Z,2.38
2022-10-09T01:49:15.742Z,2.30
2022-10-09T01:52:00.323Z,2.58
2022-10-09T01:54:37.559Z,2.10
2022-10-09T01:57:08.263Z,2.83
2022-10-09T01:59:39.738Z,3.05
2022-10-09T02:02:07.731Z,2.80
2022-10-09T02:04:37.032Z,2.63
2022-10-09T02:07:05.641Z,2.05
2022-10-09T02:09:34.102Z,2.15
2022-10-09T02:12:06.851Z,2.25
2022-10-09T02:14:35.074Z,2.50
2022-10-09T02:17:07.583Z,2.40
2022-10-09T02:19:54.881Z,2.92
2022-10-09T02:22:28.736Z,2.55
2022-10-09T02:24:57.969Z,2.40
2022-10-09T02:27:24.932Z,2.30
2022-10-09T02:29:53.018Z,2.45
2022-10-09T02:32:20.187Z,2.47
2022-10-09T02:34:46.705Z,2.20
2022-10-09T02:37:13.239Z,2.45
2022-10-09T02:39:39.849Z,2.50
2022-10-09T02:42:06.332Z,2.72
2022-10-09T02:44:32.839Z,2.60
2022-10-09T02:46:59.320Z,2.50
2022-10-09T02:49:25.819Z,2.60
2022-10-09T02:51:52.368Z,2.58
2022-10-09T02:54:18.890Z,2.53
2022-10-09T02:56:45.508Z,2.70
2022-10-09T02:59:12.101Z,2.30
2022-10-09T03:01:38.739Z,2.58
2022-10-09T03:04:05.350Z,2.53
2022-10-09T03:06:32.883Z,2.13
2022-10-09T03:08:59.354Z,2.13
2022-10-09T03:11:26.483Z,2.35
2022-10-09T03:13:54.488Z,2.60
2022-10-09T03:16:23.371Z,2.25
2022-10-09T03:18:51.381Z,2.17
2022-10-09T03:21:23.581Z,2.53
2022-10-09T03:23:50.750Z,2.15
2022-10-09T03:26:20.072Z,2.10
2022-10-09T03:28:48.552Z,2.78
2022-10-09T03:31:39.231Z,2.47
2022-10-09T03:34:03.383Z,2.30
2022-10-09T03:36:29.974Z,2.25
2022-10-09T03:38:56.432Z,2.03
2022-10-09T03:41:22.909Z,2.45
2022-10-09T03:43:49.423Z,2.15
2022-10-09T03:46:15.989Z,2.45
2022-10-09T03:48:42.467Z,2.15
2022-10-09T03:51:08.964Z,2.15
2022-10-09T03:53:35.555Z,2.17
2022-10-09T03:56:02.080Z,1.92
2022-10-09T03:58:28.559Z,2.00
2022-10-09T04:00:55.198Z,2.10
2022-10-09T04:03:24.782Z,2.05
2022-10-09T04:05:51.244Z,2.00
2022-10-09T04:08:17.736Z,2.10
2022-10-09T04:10:44.773Z,1.90
2022-10-09T04:13:11.291Z,1.85
2022-10-09T04:15:37.843Z,2.00
2022-10-09T04:18:05.216Z,1.95
2022-10-09T04:20:32.230Z,2.25
2022-10-09T04:22:58.829Z,1.92
2022-10-09T04:25:25.319Z,1.73
2022-10-09T04:27:51.797Z,1.90
2022-10-09T04:30:18.410Z,1.85
2022-10-09T04:32:44.928Z,2.40
2022-10-09T04:35:11.418Z,2.08
2022-10-09T04:37:37.907Z,1.90
2022-10-09T04:40:05.042Z,1.90
2022-10-09T04:42:31.534Z,2.05
2022-10-09T04:44:58.215Z,2.20
2022-10-09T04:47:24.710Z,2.42
2022-10-09T04:49:51.160Z,1.80
2022-10-09T04:52:17.670Z,1.95
2022-10-09T04:54:44.110Z,1.90
2022-10-09T04:57:10.608Z,2.05
2022-10-09T04:59:37.068Z,1.63
2022-10-09T05:02:04.014Z,2.00
2022-10-09T05:04:30.789Z,1.77
2022-10-09T05:06:57.244Z,2.35
2022-10-09T05:09:26.928Z,1.70
2022-10-09T05:11:53.562Z,2.17
2022-10-09T05:14:20.087Z,2.00
2022-10-09T05:17:12.477Z,2.22
2022-10-09T05:19:36.586Z,2.35
2022-10-09T05:22:03.062Z,2.22
2022-10-09T05:24:29.605Z,1.98
2022-10-09T05:26:56.070Z,1.90
2022-10-09T05:29:22.651Z,2.05
2022-10-09T05:31:49.733Z,2.40
2022-10-09T05:34:16.533Z,2.00
2022-10-09T05:36:43.049Z,2.33
2022-10-09T05:39:09.695Z,2.00
2022-10-09T05:41:36.235Z,2.03
2022-10-09T05:44:03.866Z,1.83
2022-10-09T05:46:30.640Z,2.15
2022-10-09T05:49:05.478Z,2.15
2022-10-09T05:51:37.961Z,2.50
2022-10-09T05:54:05.744Z,2.25
2022-10-09T05:56:35.225Z,2.60
2022-10-09T05:59:14.801Z,3.03
2022-10-09T06:01:44.180Z,3.78
2022-10-09T06:04:20.463Z,4.47
2022-10-09T06:06:48.491Z,3.83
2022-10-09T06:09:22.033Z,2.92
2022-10-09T06:11:50.800Z,3.40
2022-10-09T06:14:17.438Z,3.50
2022-10-09T06:16:45.475Z,3.50
2022-10-09T06:19:14.511Z,3.70
2022-10-09T06:21:41.839Z,3.20
2022-10-09T06:24:12.034Z,3.08
2022-10-09T06:26:41.935Z,2.80
2022-10-09T06:29:09.254Z,3.13
2022-10-09T06:31:35.897Z,2.95
2022-10-09T06:34:03.349Z,3.30
2022-10-09T06:36:33.114Z,3.28
2022-10-09T06:39:01.158Z,3.42
2022-10-09T06:41:29.560Z,4.10
2022-10-09T06:44:04.207Z,4.00
2022-10-09T06:46:36.607Z,4.07
2022-10-09T06:49:03.961Z,3.92
2022-10-09T06:51:30.969Z,3.80
2022-10-09T06:53:59.879Z,3.42
2022-10-09T06:56:29.054Z,3.25
2022-10-09T06:58:55.805Z,2.95
2022-10-09T07:01:27.175Z,4.13
2022-10-09T07:03:59.209Z,4.40
2022-10-09T07:09:00.095Z,3.33
2022-10-09T07:11:29.077Z,4.07
2022-10-09T07:13:58.401Z,3.53
2022-10-09T07:16:31.526Z,3.70
2022-10-09T07:19:00.360Z,3.55
2022-10-09T07:21:27.192Z,3.50
2022-10-09T07:23:56.632Z,2.63
2022-10-09T07:26:26.410Z,2.15
2022-10-09T07:28:53.757Z,2.50
2022-10-09T07:31:20.718Z,2.90
2022-10-09T07:33:48.598Z,2.70
2022-10-09T07:36:15.259Z,2.60
2022-10-09T07:38:41.946Z,3.05
2022-10-09T07:41:11.275Z,2.40
2022-10-09T07:43:39.681Z,2.45
2022-10-09T07:46:09.897Z,2.20
2022-10-09T07:48:37.239Z,2.15
2022-10-09T07:51:15.120Z,1.90
2022-10-09T07:53:41.731Z,2.35
2022-10-09T07:56:14.560Z,1.80
2022-10-09T07:58:41.880Z,2.20
2022-10-09T08:01:09.091Z,2.38
2022-10-09T08:03:36.596Z,2.05
2022-10-09T08:06:03.854Z,1.95
2022-10-09T08:08:30.530Z,1.70
2022-10-09T08:10:56.966Z,1.88
2022-10-09T08:13:23.465Z,2.00
2022-10-09T08:15:50.168Z,2.00
2022-10-09T08:18:16.846Z,2.15
2022-10-09T08:20:43.378Z,2.60
2022-10-09T08:23:09.864Z,1.80
2022-10-09T08:25:37.373Z,1.83
2022-10-09T08:28:04.694Z,1.83
2022-10-09T08:30:31.357Z,1.80
2022-10-09T08:32:57.819Z,1.60
2022-10-09T08:35:24.284Z,1.92
2022-10-09T08:37:50.814Z,1.83
2022-10-09T08:40:24.226Z,1.80
2022-10-09T08:43:02.195Z,1.65
2022-10-09T08:45:31.211Z,1.58
2022-10-09T08:48:06.512Z,2.00
2022-10-09T08:50:37.987Z,1.98
2022-10-09T08:53:18.668Z,1.73
2022-10-09T08:55:55.988Z,1.98
2022-10-09T08:58:26.777Z,1.70
2022-10-09T09:00:58.732Z,1.70
2022-10-09T09:06:55.094Z,1.35
2022-10-09T09:09:43.464Z,1.88
2022-10-09T09:12:34.159Z,1.98
2022-10-09T09:15:10.069Z,1.85
2022-10-09T09:17:42.661Z,2.00
2022-10-09T09:20:39.880Z,1.45
2022-10-09T09:23:12.598Z,1.65
2022-10-09T09:25:42.218Z,1.90
2022-10-09T09:28:17.876Z,1.85
2022-10-09T09:30:51.802Z,1.73
2022-10-09T09:33:35.868Z,1.67
2022-10-09T09:36:09.843Z,1.77
2022-10-09T09:38:47.813Z,1.70
2022-10-09T09:41:20.899Z,1.83
2022-10-09T09:43:47.417Z,1.75
2022-10-09T09:46:23.932Z,1.67
2022-10-09T09:48:50.477Z,1.90
2022-10-09T09:51:29.559Z,1.67
2022-10-09T09:54:00.733Z,1.83
2022-10-09T09:57:10.493Z,1.60
2022-10-09T09:59:43.954Z,1.55
2022-10-09T10:02:13.185Z,1.80
2022-10-09T10:04:55.470Z,1.70
2022-10-09T10:10:13.210Z,1.40
2022-10-09T10:12:45.382Z,1.70
2022-10-09T10:15:30.228Z,2.05
2022-10-09T10:18:06.686Z,1.75
2022-10-09T10:20:43.331Z,1.60
2022-10-09T10:23:25.349Z,1.58
2022-10-09T10:25:57.990Z,1.85
2022-10-09T10:28:35.763Z,1.95
2022-10-09T10:31:06.731Z,2.20
2022-10-09T10:33:37.469Z,2.13
2022-10-09T10:36:05.073Z,1.90
2022-10-09T10:38:45.168Z,2.25
2022-10-09T10:41:21.052Z,2.08
2022-10-09T10:43:59.445Z,2.05
2022-10-09T10:46:31.166Z,1.92
2022-10-09T10:49:00.131Z,1.95
2022-10-09T10:51:43.044Z,2.03
2022-10-09T10:54:40.662Z,2.22
2022-10-09T10:57:20.929Z,1.88
2022-10-09T11:00:05.579Z,1.80
2022-10-09T11:02:32.959Z,1.80
2022-10-09T11:05:09.444Z,1.63
2022-10-09T11:08:46.581Z,1.70
2022-10-09T11:11:13.061Z,1.70
2022-10-09T11:14:03.632Z,1.95
2022-10-09T11:17:08.062Z,1.73
2022-10-09T11:20:07.550Z,1.50
2022-10-09T11:23:03.554Z,1.80
2022-10-09T11:26:08.384Z,1.58
2022-10-09T11:28:56.673Z,2.10
2022-10-09T11:31:32.526Z,1.60
2022-10-09T11:34:04.274Z,1.35
2022-10-09T11:36:44.758Z,1.70
2022-10-09T11:39:16.042Z,2.03
2022-10-09T11:41:46.642Z,1.63
2022-10-09T11:44:50.743Z,1.52
2022-10-09T11:47:30.821Z,1.60
2022-10-09T11:50:51.386Z,1.27
2022-10-09T11:53:22.613Z,1.30
2022-10-09T11:55:49.234Z,1.38
2022-10-09T11:58:18.677Z,1.52
2022-10-09T12:00:47.939Z,1.55
2022-10-09T12:03:35.991Z,1.48
2022-10-09T12:06:04.193Z,1.00
2022-10-09T12:08:30.834Z,1.40
2022-10-09T12:11:09.384Z,1.25
2022-10-09T12:13:45.111Z,1.40
2022-10-09T12:16:29.545Z,1.13
2022-10-09T12:18:58.134Z,1.40
2022-10-09T12:21:29.140Z,1.30
2022-10-09T12:23:55.906Z,1.40
2022-10-09T12:26:25.028Z,1.50
2022-10-09T12:28:55.319Z,1.38
2022-10-09T12:31:21.946Z,1.40
2022-10-09T12:33:54.739Z,1.50
2022-10-09T12:36:27.695Z,1.52
2022-10-09T12:38:54.840Z,1.20
2022-10-09T12:41:31.688Z,1.30
2022-10-09T12:43:58.835Z,1.70
2022-10-09T12:46:39.282Z,1.50
2022-10-09T12:49:16.498Z,1.60
2022-10-09T12:51:53.766Z,1.40
2022-10-09T12:54:25.076Z,1.33
2022-10-09T12:56:56.834Z,1.40
2022-10-09T12:59:25.710Z,1.10
2022-10-09T13:01:57.893Z,1.20
2022-10-09T13:04:33.073Z,1.30
2022-10-09T13:07:05.667Z,1.27
2022-10-09T13:09:37.786Z,1.42
2022-10-09T13:12:23.097Z,1.45
2022-10-09T13:15:04.822Z,1.40
2022-10-09T13:20:16.132Z,0.93
2022-10-09T13:23:04.125Z,1.25
2022-10-09T13:25:37.127Z,1.33
2022-10-09T13:28:04.499Z,1.13
2022-10-09T13:30:31.276Z,1.15
2022-10-09T13:32:57.899Z,1.45
2022-10-09T13:35:24.572Z,1.50
2022-10-09T13:37:51.323Z,1.20
2022-10-09T13:40:21.704Z,1.20
2022-10-09T13:43:02.494Z,1.40
2022-10-09T13:45:29.010Z,1.38
2022-10-09T13:47:55.468Z,1.60
2022-10-09T13:50:22.268Z,1.33
2022-10-09T13:52:49.037Z,1.30
2022-10-09T13:55:15.795Z,1.20
2022-10-09T13:57:42.297Z,1.10
2022-10-09T14:00:09.611Z,1.02
2022-10-09T14:02:36.422Z,1.25
2022-10-09T14:05:03.202Z,1.42
2022-10-09T14:07:30.376Z,1.60
2022-10-09T14:09:57.470Z,1.30
2022-10-09T14:12:24.103Z,1.30
2022-10-09T14:14:50.561Z,1.33
2022-10-09T14:17:17.070Z,1.15
2022-10-09T14:19:43.564Z,1.00
2022-10-09T14:22:10.224Z,1.35
2022-10-09T14:24:37.703Z,1.15
2022-10-09T14:27:04.263Z,1.75
2022-10-09T14:29:30.858Z,1.13
2022-10-09T14:31:57.421Z,1.30
2022-10-09T14:34:23.959Z,1.30
2022-10-09T14:36:50.513Z,1.15
2022-10-09T14:39:17.246Z,1.20
2022-10-09T14:41:43.702Z,1.30
2022-10-09T14:44:10.998Z,1.10
2022-10-09T14:46:39.164Z,1.02
2022-10-09T14:49:07.952Z,1.00
2022-10-09T14:51:37.489Z,1.00
2022-10-09T14:54:05.511Z,1.10
2022-10-09T14:56:32.433Z,1.02
2022-10-09T14:59:01.005Z,1.00
2022-10-09T15:01:29.404Z,0.90
2022-10-09T15:03:56.133Z,1.17
2022-10-09T15:06:25.499Z,1.27
2022-10-09T15:08:55.992Z,1.02
2022-10-09T15:11:23.029Z,1.00
2022-10-09T15:13:49.547Z,1.13
2022-10-09T15:16:18.635Z,1.08
2022-10-09T15:18:46.558Z,1.10
2022-10-09T15:21:15.659Z,1.08
2022-10-09T15:23:42.557Z,0.90
2022-10-09T15:26:10.101Z,0.90
2022-10-09T15:28:38.851Z,1.02
2022-10-09T15:31:07.480Z,1.33
2022-10-09T15:33:33.995Z,1.20
2022-10-09T15:36:00.679Z,1.25
2022-10-09T15:38:27.160Z,1.35
2022-10-09T15:40:55.837Z,1.05
2022-10-09T15:43:24.834Z,1.35
2022-10-09T15:45:54.078Z,1.30
2022-10-09T15:48:23.532Z,1.45
2022-10-09T15:50:50.576Z,1.10
2022-10-09T15:53:18.907Z,1.17
2022-10-09T15:55:47.250Z,1.20
2022-10-09T15:58:14.777Z,1.13
2022-10-09T16:00:44.992Z,1.20
2022-10-09T16:03:11.479Z,1.58
2022-10-09T16:05:39.330Z,1.08
2022-10-09T16:08:07.285Z,1.10
2022-10-09T16:10:33.979Z,1.20
2022-10-09T16:13:00.588Z,1.40
2022-10-09T16:15:27.053Z,1.20
2022-10-09T16:17:54.389Z,1.20
2022-10-09T16:20:20.845Z,1.20
2022-10-09T16:22:47.641Z,1.33
2022-10-09T16:25:14.504Z,1.20
2022-10-09T16:27:40.993Z,1.50
2022-10-09T16:30:08.430Z,1.40
2022-10-09T16:32:36.140Z,1.45
2022-10-09T16:35:02.661Z,1.52
2022-10-09T16:37:29.522Z,1.50
2022-10-09T16:39:56.000Z,1.25
2022-10-09T16:42:22.524Z,2.55
2022-10-09T16:44:51.422Z,2.30
2022-10-09T16:47:18.872Z,1.73
2022-10-09T16:49:45.415Z,2.08
2022-10-09T16:52:11.885Z,2.50
2022-10-09T16:54:39.383Z,3.47
2022-10-09T16:57:07.009Z,4.10
2022-10-09T16:59:33.874Z,3.25
2022-10-09T17:02:04.117Z,4.18
2022-10-09T17:04:31.000Z,4.55
2022-10-09T17:06:57.569Z,6.25
2022-10-09T17:09:24.177Z,6.22
2022-10-09T17:11:50.637Z,5.25
2022-10-09T17:14:17.195Z,5.07
2022-10-09T17:16:43.815Z,5.75
2022-10-09T17:19:10.827Z,5.10
2022-10-09T17:21:37.389Z,3.70
2022-10-09T17:24:05.051Z,3.00
2022-10-09T17:26:34.742Z,3.03
2022-10-09T17:29:02.541Z,6.18
2022-10-09T17:31:29.395Z,8.10
2022-10-09T17:33:59.702Z,8.70
2022-10-09T17:36:28.991Z,7.65
2022-10-09T17:38:55.962Z,8.13
2022-10-09T17:41:24.020Z,8.13
2022-10-09T17:43:52.585Z,7.32
2022-10-09T17:46:19.975Z,7.30
2022-10-09T17:48:52.896Z,8.45
2022-10-09T17:51:25.570Z,7.68
2022-10-09T17:53:53.014Z,7.85
2022-10-09T17:56:20.013Z,7.88
2022-10-09T17:58:50.158Z,6.97
2022-10-09T18:01:17.626Z,7.30
2022-10-09T18:03:44.820Z,5.82
2022-10-09T18:06:15.555Z,6.55
2022-10-09T18:08:42.451Z,5.63
2022-10-09T18:11:16.440Z,5.20
2022-10-09T18:13:44.330Z,5.47
2022-10-09T18:16:19.471Z,4.47
2022-10-09T18:18:46.433Z,2.83
2022-10-09T18:21:16.989Z,3.35
2022-10-09T18:23:45.386Z,2.70
2022-10-09T18:26:14.755Z,2.30
2022-10-09T18:28:43.552Z,2.17
2022-10-09T18:31:15.291Z,2.50
2022-10-09T18:33:42.716Z,2.20
2022-10-09T18:36:18.188Z,2.10
2022-10-09T18:38:49.077Z,2.22
2022-10-09T18:41:16.717Z,2.05
2022-10-09T18:43:43.283Z,2.05
2022-10-09T18:46:10.209Z,2.10
2022-10-09T18:48:39.615Z,2.13
2022-10-09T18:51:09.008Z,1.90
2022-10-09T18:53:37.959Z,2.10
2022-10-09T18:56:07.275Z,2.38
2022-10-09T18:58:35.619Z,2.22
2022-10-09T19:01:07.246Z,2.33
2022-10-09T19:03:36.695Z,2.80
2022-10-09T19:06:04.732Z,2.53
2022-10-09T19:08:32.586Z,2.72
2022-10-09T19:11:00.459Z,2.95
2022-10-09T19:13:27.206Z,2.60
2022-10-09T19:15:58.331Z,2.80
2022-10-09T19:18:26.454Z,2.80
2022-10-09T19:20:53.588Z,2.75
2022-10-09T19:23:20.215Z,3.10
2022-10-09T19:25:52.416Z,3.00
2022-10-09T19:28:22.018Z,2.70
2022-10-09T19:30:48.508Z,3.03
2022-10-09T19:33:15.441Z,2.72
2022-10-09T19:35:49.941Z,2.65
2022-10-09T19:38:17.617Z,3.08
2022-10-09T19:40:44.885Z,2.90
2022-10-09T19:43:12.717Z,3.67
2022-10-09T19:45:39.292Z,2.97
2022-10-09T19:48:06.273Z,3.25
2022-10-09T19:50:33.246Z,3.10
2022-10-09T19:53:03.127Z,3.08
2022-10-09T19:55:33.254Z,3.10
2022-10-09T19:58:00.431Z,3.15
2022-10-09T20:00:27.852Z,3.10
2022-10-09T20:02:54.413Z,3.15
2022-10-09T20:05:21.482Z,3.33
2022-10-09T20:07:48.065Z,3.00
2022-10-09T20:10:14.929Z,3.20
2022-10-09T20:12:41.473Z,2.63
2022-10-09T20:15:08.757Z,2.90
2022-10-09T20:17:35.315Z,2.60
2022-10-09T20:20:04.519Z,2.83
2022-10-09T20:22:31.018Z,2.67
2022-10-09T20:24:57.518Z,2.50
2022-10-09T20:27:23.989Z,2.53
2022-10-09T20:29:52.734Z,3.03
2022-10-09T20:32:21.144Z,2.85
2022-10-09T20:34:47.671Z,2.55
2022-10-09T20:37:14.103Z,2.72
2022-10-09T20:39:40.682Z,2.72
2022-10-09T20:42:07.343Z,2.67
2022-10-09T20:44:33.909Z,3.45
2022-10-09T20:47:00.402Z,3.58
2022-10-09T20:49:26.973Z,3.38
2022-10-09T20:51:53.557Z,3.58
2022-10-09T20:54:21.807Z,4.03
2022-10-09T20:56:48.904Z,3.95
2022-10-09T20:59:16.165Z,4.40
2022-10-09T21:01:43.155Z,3.67
2022-10-09T21:04:11.579Z,4.03
2022-10-09T21:06:38.630Z,3.90
2022-10-09T21:09:05.104Z,3.50
2022-10-09T21:11:38.961Z,3.50
2022-10-09T21:14:05.672Z,2.97
2022-10-09T21:16:32.236Z,2.70
2022-10-09T21:19:02.437Z,3.08
2022-10-09T21:21:29.535Z,2.90
2022-10-09T21:23:58.158Z,2.78
2022-10-09T21:26:27.213Z,2.55
2022-10-09T21:28:58.445Z,2.90
2022-10-09T21:31:28.542Z,2.47
2022-10-09T21:33:55.584Z,3.60
2022-10-09T21:37:02.322Z,3.13
2022-10-09T21:39:30.867Z,3.08
2022-10-09T21:41:57.376Z,3.40
2022-10-09T21:44:23.928Z,2.92
2022-10-09T21:46:50.374Z,2.88
2022-10-09T21:49:21.149Z,2.92
2022-10-09T21:51:48.317Z,2.78
2022-10-09T21:54:14.865Z,4.55
2022-10-09T21:56:41.389Z,6.28
2022-10-09T21:59:08.198Z,5.28
2022-10-09T22:01:34.840Z,3.78
2022-10-09T22:04:01.507Z,3.08
2022-10-09T22:06:27.949Z,3.65
2022-10-09T22:08:54.435Z,3.47
2022-10-09T22:11:20.920Z,3.65
2022-10-09T22:13:47.527Z,3.10
2022-10-09T22:16:15.671Z,2.90
2022-10-09T22:18:45.452Z,3.38
2022-10-09T22:21:14.817Z,3.75
2022-10-09T22:23:41.923Z,3.85
2022-10-09T22:26:12.752Z,3.20
2022-10-09T22:28:39.536Z,3.00
2022-10-09T22:31:07.687Z,3.10
2022-10-09T22:33:35.510Z,3.20
2022-10-09T22:36:04.572Z,2.75
2022-10-09T22:38:31.111Z,3.08
2022-10-09T22:41:08.687Z,3.75
2022-10-09T22:43:36.095Z,2.90
2022-10-09T22:46:15.281Z,2.85
2022-10-09T22:48:43.969Z,2.70
2022-10-09T22:51:12.916Z,2.83
2022-10-09T22:53:40.110Z,3.15
2022-10-09T22:56:09.105Z,3.08
2022-10-09T22:58:35.677Z,3.22
2022-10-09T23:01:08.798Z,2.97
2022-10-09T23:03:35.906Z,2.80
2022-10-09T23:06:13.445Z,2.75
2022-10-09T23:08:41.739Z,3.30
2022-10-09T23:11:08.841Z,3.28
2022-10-09T23:13:35.390Z,3.30
2022-10-09T23:16:07.210Z,2.95
2022-10-09T23:18:34.536Z,2.95
2022-10-09T23:21:14.887Z,3.05
2022-10-09T23:23:42.434Z,3.08
2022-10-09T23:26:12.193Z,3.05
2022-10-09T23:28:39.097Z,2.83
2022-10-09T23:31:11.596Z,3.10
2022-10-09T23:33:39.761Z,3.25
2022-10-09T23:36:27.217Z,3.63
2022-10-09T23:38:54.523Z,2.88
2022-10-09T23:41:24.756Z,3.03
2022-10-09T23:43:52.290Z,2.88
2022-10-09T23:46:22.202Z,3.15
2022-10-09T23:48:49.814Z,3.63
2022-10-09T23:51:18.115Z,3.13
2022-10-09T23:53:44.731Z,3.03
2022-10-09T23:56:26.015Z,2.33
2022-10-09T23:58:53.713Z,2.53
